<?xml version="1.0" encoding="UTF-8" standalone="no" ?>
<gpx xmlns="http://www.topografix.com/GPX/1/1" xmlns:xsi="http://www.w3.org/2001/XMLSchema-instance" xsi:schemaLocation="http://www.topografix.com/GPX/1/1 http://www.topografix.com/GPX/1/1/gpx.xsd" version="1.1" creator="VisuGPX - https://www.visugpx.com">
  <metadata>
    <name>Stage ASICS || Run mouillé 🌧️🌧️</name>
  </metadata>
  <trk>
    <name><![CDATA[Stage ASICS || Run mouillé 🌧️🌧️_1]]></name>
    <trkseg>
      <trkpt lat="44.39832" lon="4.38789">
        <ele>98.3</ele>
        <time>2024-03-03T15:11:37Z</time>
      </trkpt>
      <trkpt lat="44.39814" lon="4.3878">
        <ele>96.6</ele>
        <time>2024-03-03T15:11:45Z</time>
      </trkpt>
      <trkpt lat="44.39795" lon="4.3877">
        <ele>93.8</ele>
        <time>2024-03-03T15:11:52Z</time>
      </trkpt>
      <trkpt lat="44.39777" lon="4.38775">
        <ele>92.4</ele>
        <time>2024-03-03T15:11:59Z</time>
      </trkpt>
      <trkpt lat="44.39764" lon="4.38792">
        <ele>91.9</ele>
        <time>2024-03-03T15:12:08Z</time>
      </trkpt>
      <trkpt lat="44.39763" lon="4.38797">
        <ele>91.7</ele>
        <time>2024-03-03T15:12:10Z</time>
      </trkpt>
      <trkpt lat="44.39756" lon="4.38821">
        <ele>91.5</ele>
        <time>2024-03-03T15:12:18Z</time>
      </trkpt>
      <trkpt lat="44.39766" lon="4.38845">
        <ele>92.1</ele>
        <time>2024-03-03T15:12:28Z</time>
      </trkpt>
      <trkpt lat="44.39779" lon="4.38865">
        <ele>92.4</ele>
        <time>2024-03-03T15:12:36Z</time>
      </trkpt>
      <trkpt lat="44.39794" lon="4.38885">
        <ele>92.8</ele>
        <time>2024-03-03T15:12:45Z</time>
      </trkpt>
      <trkpt lat="44.39806" lon="4.38907">
        <ele>93.3</ele>
        <time>2024-03-03T15:12:54Z</time>
      </trkpt>
      <trkpt lat="44.39822" lon="4.38923">
        <ele>93.6</ele>
        <time>2024-03-03T15:13:02Z</time>
      </trkpt>
      <trkpt lat="44.3984" lon="4.38933">
        <ele>93.8</ele>
        <time>2024-03-03T15:13:11Z</time>
      </trkpt>
      <trkpt lat="44.39859" lon="4.38944">
        <ele>94</ele>
        <time>2024-03-03T15:13:18Z</time>
      </trkpt>
      <trkpt lat="44.39875" lon="4.38954">
        <ele>94.4</ele>
        <time>2024-03-03T15:13:24Z</time>
      </trkpt>
      <trkpt lat="44.39894" lon="4.38968">
        <ele>95.1</ele>
        <time>2024-03-03T15:13:31Z</time>
      </trkpt>
      <trkpt lat="44.39909" lon="4.38982">
        <ele>95.8</ele>
        <time>2024-03-03T15:13:38Z</time>
      </trkpt>
      <trkpt lat="44.39922" lon="4.39">
        <ele>96.1</ele>
        <time>2024-03-03T15:13:46Z</time>
      </trkpt>
      <trkpt lat="44.3993" lon="4.39023">
        <ele>95</ele>
        <time>2024-03-03T15:13:53Z</time>
      </trkpt>
      <trkpt lat="44.39927" lon="4.39049">
        <ele>94.5</ele>
        <time>2024-03-03T15:14:00Z</time>
      </trkpt>
      <trkpt lat="44.39921" lon="4.39076">
        <ele>94.2</ele>
        <time>2024-03-03T15:14:07Z</time>
      </trkpt>
      <trkpt lat="44.39915" lon="4.39101">
        <ele>93.8</ele>
        <time>2024-03-03T15:14:14Z</time>
      </trkpt>
      <trkpt lat="44.3991" lon="4.39125">
        <ele>93.5</ele>
        <time>2024-03-03T15:14:20Z</time>
      </trkpt>
      <trkpt lat="44.39905" lon="4.39153">
        <ele>93.2</ele>
        <time>2024-03-03T15:14:27Z</time>
      </trkpt>
      <trkpt lat="44.399" lon="4.39179">
        <ele>92.9</ele>
        <time>2024-03-03T15:14:34Z</time>
      </trkpt>
      <trkpt lat="44.39898" lon="4.39204">
        <ele>92.7</ele>
        <time>2024-03-03T15:14:41Z</time>
      </trkpt>
      <trkpt lat="44.39894" lon="4.3923">
        <ele>92.3</ele>
        <time>2024-03-03T15:14:48Z</time>
      </trkpt>
      <trkpt lat="44.39891" lon="4.39255">
        <ele>92.1</ele>
        <time>2024-03-03T15:14:55Z</time>
      </trkpt>
      <trkpt lat="44.39889" lon="4.3928">
        <ele>91.9</ele>
        <time>2024-03-03T15:15:02Z</time>
      </trkpt>
      <trkpt lat="44.39886" lon="4.39306">
        <ele>91.8</ele>
        <time>2024-03-03T15:15:09Z</time>
      </trkpt>
      <trkpt lat="44.39883" lon="4.39332">
        <ele>91.7</ele>
        <time>2024-03-03T15:15:16Z</time>
      </trkpt>
      <trkpt lat="44.3988" lon="4.39358">
        <ele>91.6</ele>
        <time>2024-03-03T15:15:23Z</time>
      </trkpt>
      <trkpt lat="44.39876" lon="4.39383">
        <ele>91.6</ele>
        <time>2024-03-03T15:15:30Z</time>
      </trkpt>
      <trkpt lat="44.39874" lon="4.39411">
        <ele>91.5</ele>
        <time>2024-03-03T15:15:38Z</time>
      </trkpt>
      <trkpt lat="44.39871" lon="4.39438">
        <ele>91.5</ele>
        <time>2024-03-03T15:15:46Z</time>
      </trkpt>
      <trkpt lat="44.39869" lon="4.39466">
        <ele>91.3</ele>
        <time>2024-03-03T15:15:54Z</time>
      </trkpt>
      <trkpt lat="44.39866" lon="4.39492">
        <ele>91.3</ele>
        <time>2024-03-03T15:16:01Z</time>
      </trkpt>
      <trkpt lat="44.39863" lon="4.39517">
        <ele>91.3</ele>
        <time>2024-03-03T15:16:09Z</time>
      </trkpt>
      <trkpt lat="44.39866" lon="4.39543">
        <ele>91.4</ele>
        <time>2024-03-03T15:16:17Z</time>
      </trkpt>
      <trkpt lat="44.39879" lon="4.39564">
        <ele>91.3</ele>
        <time>2024-03-03T15:16:24Z</time>
      </trkpt>
      <trkpt lat="44.39897" lon="4.39579">
        <ele>91.3</ele>
        <time>2024-03-03T15:16:32Z</time>
      </trkpt>
      <trkpt lat="44.39904" lon="4.39586">
        <ele>91.5</ele>
        <time>2024-03-03T15:16:37Z</time>
      </trkpt>
      <trkpt lat="44.39908" lon="4.39613">
        <ele>92.7</ele>
        <time>2024-03-03T15:16:49Z</time>
      </trkpt>
      <trkpt lat="44.39917" lon="4.39639">
        <ele>94.5</ele>
        <time>2024-03-03T15:17:01Z</time>
      </trkpt>
      <trkpt lat="44.39918" lon="4.39664">
        <ele>95.8</ele>
        <time>2024-03-03T15:17:11Z</time>
      </trkpt>
      <trkpt lat="44.39916" lon="4.3969">
        <ele>97.3</ele>
        <time>2024-03-03T15:17:19Z</time>
      </trkpt>
      <trkpt lat="44.39921" lon="4.39717">
        <ele>99.2</ele>
        <time>2024-03-03T15:17:31Z</time>
      </trkpt>
      <trkpt lat="44.39925" lon="4.39744">
        <ele>101.2</ele>
        <time>2024-03-03T15:17:41Z</time>
      </trkpt>
      <trkpt lat="44.3993" lon="4.39768">
        <ele>103.4</ele>
        <time>2024-03-03T15:17:51Z</time>
      </trkpt>
      <trkpt lat="44.39928" lon="4.39794">
        <ele>105.9</ele>
        <time>2024-03-03T15:18:02Z</time>
      </trkpt>
      <trkpt lat="44.39931" lon="4.39822">
        <ele>107.5</ele>
        <time>2024-03-03T15:18:09Z</time>
      </trkpt>
      <trkpt lat="44.39932" lon="4.39848">
        <ele>108.5</ele>
        <time>2024-03-03T15:18:16Z</time>
      </trkpt>
      <trkpt lat="44.39933" lon="4.39876">
        <ele>109.8</ele>
        <time>2024-03-03T15:18:25Z</time>
      </trkpt>
      <trkpt lat="44.39934" lon="4.39901">
        <ele>111.3</ele>
        <time>2024-03-03T15:18:35Z</time>
      </trkpt>
      <trkpt lat="44.39935" lon="4.39929">
        <ele>113.7</ele>
        <time>2024-03-03T15:18:44Z</time>
      </trkpt>
      <trkpt lat="44.39936" lon="4.39933">
        <ele>114.2</ele>
        <time>2024-03-03T15:18:46Z</time>
      </trkpt>
      <trkpt lat="44.39938" lon="4.39958">
        <ele>116.6</ele>
        <time>2024-03-03T15:18:59Z</time>
      </trkpt>
      <trkpt lat="44.39942" lon="4.39984">
        <ele>118.4</ele>
        <time>2024-03-03T15:19:09Z</time>
      </trkpt>
      <trkpt lat="44.39945" lon="4.40011">
        <ele>118.5</ele>
        <time>2024-03-03T15:19:19Z</time>
      </trkpt>
      <trkpt lat="44.3995" lon="4.40036">
        <ele>117.9</ele>
        <time>2024-03-03T15:19:28Z</time>
      </trkpt>
      <trkpt lat="44.39957" lon="4.40063">
        <ele>118.2</ele>
        <time>2024-03-03T15:19:36Z</time>
      </trkpt>
      <trkpt lat="44.39964" lon="4.40088">
        <ele>119.2</ele>
        <time>2024-03-03T15:19:44Z</time>
      </trkpt>
      <trkpt lat="44.39964" lon="4.40118">
        <ele>118.3</ele>
        <time>2024-03-03T15:19:51Z</time>
      </trkpt>
      <trkpt lat="44.39961" lon="4.40147">
        <ele>116.1</ele>
        <time>2024-03-03T15:19:57Z</time>
      </trkpt>
      <trkpt lat="44.3996" lon="4.40173">
        <ele>114.1</ele>
        <time>2024-03-03T15:20:04Z</time>
      </trkpt>
      <trkpt lat="44.39958" lon="4.40173">
        <ele>113.8</ele>
        <time>2024-03-03T15:20:05Z</time>
      </trkpt>
      <trkpt lat="44.39941" lon="4.40182">
        <ele>111.1</ele>
        <time>2024-03-03T15:20:13Z</time>
      </trkpt>
      <trkpt lat="44.39926" lon="4.40197">
        <ele>108.7</ele>
        <time>2024-03-03T15:20:20Z</time>
      </trkpt>
      <trkpt lat="44.3991" lon="4.40211">
        <ele>106.1</ele>
        <time>2024-03-03T15:20:27Z</time>
      </trkpt>
      <trkpt lat="44.39895" lon="4.40228">
        <ele>103.3</ele>
        <time>2024-03-03T15:20:34Z</time>
      </trkpt>
      <trkpt lat="44.39883" lon="4.4025">
        <ele>100.4</ele>
        <time>2024-03-03T15:20:42Z</time>
      </trkpt>
      <trkpt lat="44.3987" lon="4.40271">
        <ele>97.7</ele>
        <time>2024-03-03T15:20:49Z</time>
      </trkpt>
      <trkpt lat="44.39854" lon="4.40285">
        <ele>95.6</ele>
        <time>2024-03-03T15:20:56Z</time>
      </trkpt>
      <trkpt lat="44.39833" lon="4.40281">
        <ele>94.4</ele>
        <time>2024-03-03T15:21:04Z</time>
      </trkpt>
      <trkpt lat="44.39814" lon="4.40284">
        <ele>93.7</ele>
        <time>2024-03-03T15:21:11Z</time>
      </trkpt>
      <trkpt lat="44.39795" lon="4.40286">
        <ele>93.3</ele>
        <time>2024-03-03T15:21:18Z</time>
      </trkpt>
      <trkpt lat="44.39776" lon="4.40291">
        <ele>93</ele>
        <time>2024-03-03T15:21:26Z</time>
      </trkpt>
      <trkpt lat="44.39763" lon="4.40312">
        <ele>93.2</ele>
        <time>2024-03-03T15:21:34Z</time>
      </trkpt>
      <trkpt lat="44.39751" lon="4.40331">
        <ele>93.3</ele>
        <time>2024-03-03T15:21:46Z</time>
      </trkpt>
      <trkpt lat="44.39737" lon="4.40351">
        <ele>93.4</ele>
        <time>2024-03-03T15:21:56Z</time>
      </trkpt>
      <trkpt lat="44.39722" lon="4.40371">
        <ele>93.4</ele>
        <time>2024-03-03T15:22:03Z</time>
      </trkpt>
      <trkpt lat="44.39708" lon="4.40391">
        <ele>93.4</ele>
        <time>2024-03-03T15:22:10Z</time>
      </trkpt>
      <trkpt lat="44.39697" lon="4.40411">
        <ele>93.4</ele>
        <time>2024-03-03T15:22:17Z</time>
      </trkpt>
      <trkpt lat="44.39683" lon="4.4043">
        <ele>93.5</ele>
        <time>2024-03-03T15:22:25Z</time>
      </trkpt>
      <trkpt lat="44.39672" lon="4.40453">
        <ele>93.4</ele>
        <time>2024-03-03T15:22:32Z</time>
      </trkpt>
      <trkpt lat="44.3966" lon="4.40475">
        <ele>93.1</ele>
        <time>2024-03-03T15:22:39Z</time>
      </trkpt>
      <trkpt lat="44.39648" lon="4.40495">
        <ele>92.4</ele>
        <time>2024-03-03T15:22:46Z</time>
      </trkpt>
      <trkpt lat="44.39636" lon="4.40518">
        <ele>91.1</ele>
        <time>2024-03-03T15:22:53Z</time>
      </trkpt>
      <trkpt lat="44.39622" lon="4.40537">
        <ele>89.8</ele>
        <time>2024-03-03T15:23:00Z</time>
      </trkpt>
      <trkpt lat="44.39609" lon="4.40555">
        <ele>88.7</ele>
        <time>2024-03-03T15:23:07Z</time>
      </trkpt>
      <trkpt lat="44.39597" lon="4.40575">
        <ele>87.9</ele>
        <time>2024-03-03T15:23:14Z</time>
      </trkpt>
      <trkpt lat="44.39584" lon="4.40594">
        <ele>87.2</ele>
        <time>2024-03-03T15:23:23Z</time>
      </trkpt>
      <trkpt lat="44.39579" lon="4.40604">
        <ele>86.9</ele>
        <time>2024-03-03T15:23:31Z</time>
      </trkpt>
      <trkpt lat="44.39579" lon="4.40607">
        <ele>86.9</ele>
        <time>2024-03-03T15:23:37Z</time>
      </trkpt>
      <trkpt lat="44.39585" lon="4.40719">
        <ele>87.5</ele>
        <time>2024-03-03T15:25:22Z</time>
      </trkpt>
      <trkpt lat="44.3959" lon="4.40746">
        <ele>87.9</ele>
        <time>2024-03-03T15:25:31Z</time>
      </trkpt>
      <trkpt lat="44.39597" lon="4.4077">
        <ele>88.3</ele>
        <time>2024-03-03T15:25:39Z</time>
      </trkpt>
      <trkpt lat="44.39602" lon="4.40794">
        <ele>88.6</ele>
        <time>2024-03-03T15:25:45Z</time>
      </trkpt>
      <trkpt lat="44.39606" lon="4.40821">
        <ele>88.7</ele>
        <time>2024-03-03T15:25:51Z</time>
      </trkpt>
      <trkpt lat="44.39609" lon="4.40848">
        <ele>88.7</ele>
        <time>2024-03-03T15:25:58Z</time>
      </trkpt>
      <trkpt lat="44.39615" lon="4.40874">
        <ele>88.8</ele>
        <time>2024-03-03T15:26:05Z</time>
      </trkpt>
      <trkpt lat="44.39619" lon="4.40902">
        <ele>88.9</ele>
        <time>2024-03-03T15:26:13Z</time>
      </trkpt>
      <trkpt lat="44.39621" lon="4.40928">
        <ele>89</ele>
        <time>2024-03-03T15:26:21Z</time>
      </trkpt>
      <trkpt lat="44.39631" lon="4.40952">
        <ele>89.2</ele>
        <time>2024-03-03T15:26:29Z</time>
      </trkpt>
      <trkpt lat="44.39644" lon="4.40968">
        <ele>89.4</ele>
        <time>2024-03-03T15:26:36Z</time>
      </trkpt>
      <trkpt lat="44.39654" lon="4.40993">
        <ele>89.7</ele>
        <time>2024-03-03T15:26:44Z</time>
      </trkpt>
      <trkpt lat="44.39666" lon="4.41012">
        <ele>90.1</ele>
        <time>2024-03-03T15:26:50Z</time>
      </trkpt>
      <trkpt lat="44.39684" lon="4.4103">
        <ele>90.8</ele>
        <time>2024-03-03T15:26:57Z</time>
      </trkpt>
      <trkpt lat="44.39685" lon="4.41058">
        <ele>91.2</ele>
        <time>2024-03-03T15:27:04Z</time>
      </trkpt>
      <trkpt lat="44.39686" lon="4.41083">
        <ele>91.6</ele>
        <time>2024-03-03T15:27:13Z</time>
      </trkpt>
      <trkpt lat="44.3969" lon="4.41109">
        <ele>92.6</ele>
        <time>2024-03-03T15:27:21Z</time>
      </trkpt>
      <trkpt lat="44.39701" lon="4.4113">
        <ele>93.8</ele>
        <time>2024-03-03T15:27:30Z</time>
      </trkpt>
      <trkpt lat="44.39704" lon="4.41136">
        <ele>93.9</ele>
        <time>2024-03-03T15:27:31Z</time>
      </trkpt>
      <trkpt lat="44.39707" lon="4.41162">
        <ele>94.1</ele>
        <time>2024-03-03T15:27:38Z</time>
      </trkpt>
      <trkpt lat="44.39705" lon="4.4119">
        <ele>94.2</ele>
        <time>2024-03-03T15:27:46Z</time>
      </trkpt>
      <trkpt lat="44.397" lon="4.41217">
        <ele>94.1</ele>
        <time>2024-03-03T15:27:53Z</time>
      </trkpt>
      <trkpt lat="44.39697" lon="4.41243">
        <ele>93.8</ele>
        <time>2024-03-03T15:27:59Z</time>
      </trkpt>
      <trkpt lat="44.39693" lon="4.41269">
        <ele>93.5</ele>
        <time>2024-03-03T15:28:05Z</time>
      </trkpt>
      <trkpt lat="44.39689" lon="4.41293">
        <ele>92.9</ele>
        <time>2024-03-03T15:28:12Z</time>
      </trkpt>
      <trkpt lat="44.39688" lon="4.41317">
        <ele>92.3</ele>
        <time>2024-03-03T15:28:21Z</time>
      </trkpt>
      <trkpt lat="44.3969" lon="4.41342">
        <ele>91.9</ele>
        <time>2024-03-03T15:28:28Z</time>
      </trkpt>
      <trkpt lat="44.3969" lon="4.41363">
        <ele>91</ele>
        <time>2024-03-03T15:28:37Z</time>
      </trkpt>
      <trkpt lat="44.39697" lon="4.41385">
        <ele>91.5</ele>
        <time>2024-03-03T15:29:00Z</time>
      </trkpt>
      <trkpt lat="44.39703" lon="4.41393">
        <ele>92.1</ele>
        <time>2024-03-03T15:29:08Z</time>
      </trkpt>
      <trkpt lat="44.39707" lon="4.4142">
        <ele>92.4</ele>
        <time>2024-03-03T15:29:17Z</time>
      </trkpt>
      <trkpt lat="44.39709" lon="4.41447">
        <ele>92.6</ele>
        <time>2024-03-03T15:29:24Z</time>
      </trkpt>
      <trkpt lat="44.39714" lon="4.41472">
        <ele>92.5</ele>
        <time>2024-03-03T15:29:30Z</time>
      </trkpt>
      <trkpt lat="44.39712" lon="4.41499">
        <ele>91.9</ele>
        <time>2024-03-03T15:29:37Z</time>
      </trkpt>
      <trkpt lat="44.39711" lon="4.41522">
        <ele>91.8</ele>
        <time>2024-03-03T15:29:45Z</time>
      </trkpt>
      <trkpt lat="44.39709" lon="4.41536">
        <ele>91.6</ele>
        <time>2024-03-03T15:29:50Z</time>
      </trkpt>
      <trkpt lat="44.39706" lon="4.41562">
        <ele>91.4</ele>
        <time>2024-03-03T15:29:58Z</time>
      </trkpt>
      <trkpt lat="44.39705" lon="4.41587">
        <ele>91.5</ele>
        <time>2024-03-03T15:30:06Z</time>
      </trkpt>
      <trkpt lat="44.39708" lon="4.41601">
        <ele>91.6</ele>
        <time>2024-03-03T15:30:12Z</time>
      </trkpt>
      <trkpt lat="44.39712" lon="4.41602">
        <ele>91.7</ele>
        <time>2024-03-03T15:30:15Z</time>
      </trkpt>
      <trkpt lat="44.39714" lon="4.41607">
        <ele>91.8</ele>
        <time>2024-03-03T15:30:17Z</time>
      </trkpt>
      <trkpt lat="44.3972" lon="4.41627">
        <ele>92.2</ele>
        <time>2024-03-03T15:30:24Z</time>
      </trkpt>
      <trkpt lat="44.39734" lon="4.41647">
        <ele>92.7</ele>
        <time>2024-03-03T15:30:32Z</time>
      </trkpt>
      <trkpt lat="44.39743" lon="4.41669">
        <ele>92.8</ele>
        <time>2024-03-03T15:30:41Z</time>
      </trkpt>
      <trkpt lat="44.39751" lon="4.41676">
        <ele>93</ele>
        <time>2024-03-03T15:30:45Z</time>
      </trkpt>
      <trkpt lat="44.39768" lon="4.41687">
        <ele>93.8</ele>
        <time>2024-03-03T15:30:54Z</time>
      </trkpt>
      <trkpt lat="44.39785" lon="4.41698">
        <ele>94.1</ele>
        <time>2024-03-03T15:31:01Z</time>
      </trkpt>
      <trkpt lat="44.39801" lon="4.41709">
        <ele>94.2</ele>
        <time>2024-03-03T15:31:10Z</time>
      </trkpt>
      <trkpt lat="44.3982" lon="4.41717">
        <ele>94.5</ele>
        <time>2024-03-03T15:31:19Z</time>
      </trkpt>
      <trkpt lat="44.39839" lon="4.41719">
        <ele>94.4</ele>
        <time>2024-03-03T15:31:27Z</time>
      </trkpt>
      <trkpt lat="44.39851" lon="4.41719">
        <ele>94.3</ele>
        <time>2024-03-03T15:31:34Z</time>
      </trkpt>
      <trkpt lat="44.39868" lon="4.41711">
        <ele>94.1</ele>
        <time>2024-03-03T15:31:44Z</time>
      </trkpt>
      <trkpt lat="44.39881" lon="4.41702">
        <ele>93.9</ele>
        <time>2024-03-03T15:31:52Z</time>
      </trkpt>
      <trkpt lat="44.39898" lon="4.41689">
        <ele>94</ele>
        <time>2024-03-03T15:32:01Z</time>
      </trkpt>
      <trkpt lat="44.39913" lon="4.41672">
        <ele>94.6</ele>
        <time>2024-03-03T15:32:09Z</time>
      </trkpt>
      <trkpt lat="44.39927" lon="4.41656">
        <ele>95.2</ele>
        <time>2024-03-03T15:32:16Z</time>
      </trkpt>
      <trkpt lat="44.3994" lon="4.41637">
        <ele>96</ele>
        <time>2024-03-03T15:32:22Z</time>
      </trkpt>
      <trkpt lat="44.39954" lon="4.4162">
        <ele>97.2</ele>
        <time>2024-03-03T15:32:29Z</time>
      </trkpt>
      <trkpt lat="44.39964" lon="4.41598">
        <ele>98.8</ele>
        <time>2024-03-03T15:32:37Z</time>
      </trkpt>
      <trkpt lat="44.39978" lon="4.4158">
        <ele>99.8</ele>
        <time>2024-03-03T15:32:44Z</time>
      </trkpt>
      <trkpt lat="44.39994" lon="4.41568">
        <ele>99.8</ele>
        <time>2024-03-03T15:32:51Z</time>
      </trkpt>
      <trkpt lat="44.40012" lon="4.41561">
        <ele>98.9</ele>
        <time>2024-03-03T15:32:58Z</time>
      </trkpt>
      <trkpt lat="44.4003" lon="4.41555">
        <ele>98.2</ele>
        <time>2024-03-03T15:33:05Z</time>
      </trkpt>
      <trkpt lat="44.40049" lon="4.41547">
        <ele>97.8</ele>
        <time>2024-03-03T15:33:14Z</time>
      </trkpt>
      <trkpt lat="44.40067" lon="4.41546">
        <ele>97.7</ele>
        <time>2024-03-03T15:33:21Z</time>
      </trkpt>
      <trkpt lat="44.40084" lon="4.41538">
        <ele>97.5</ele>
        <time>2024-03-03T15:33:28Z</time>
      </trkpt>
      <trkpt lat="44.40103" lon="4.4153">
        <ele>97.4</ele>
        <time>2024-03-03T15:33:33Z</time>
      </trkpt>
      <trkpt lat="44.40121" lon="4.41522">
        <ele>97.4</ele>
        <time>2024-03-03T15:33:39Z</time>
      </trkpt>
      <trkpt lat="44.40139" lon="4.41514">
        <ele>97.4</ele>
        <time>2024-03-03T15:33:47Z</time>
      </trkpt>
      <trkpt lat="44.40157" lon="4.41507">
        <ele>97.5</ele>
        <time>2024-03-03T15:33:54Z</time>
      </trkpt>
      <trkpt lat="44.40175" lon="4.41501">
        <ele>97.5</ele>
        <time>2024-03-03T15:34:00Z</time>
      </trkpt>
      <trkpt lat="44.40195" lon="4.41491">
        <ele>97.4</ele>
        <time>2024-03-03T15:34:07Z</time>
      </trkpt>
      <trkpt lat="44.40212" lon="4.41499">
        <ele>97.1</ele>
        <time>2024-03-03T15:34:15Z</time>
      </trkpt>
      <trkpt lat="44.40229" lon="4.41488">
        <ele>96.9</ele>
        <time>2024-03-03T15:34:23Z</time>
      </trkpt>
      <trkpt lat="44.40248" lon="4.41487">
        <ele>96.5</ele>
        <time>2024-03-03T15:34:31Z</time>
      </trkpt>
      <trkpt lat="44.40266" lon="4.41475">
        <ele>96.4</ele>
        <time>2024-03-03T15:34:38Z</time>
      </trkpt>
      <trkpt lat="44.40284" lon="4.41463">
        <ele>96.3</ele>
        <time>2024-03-03T15:34:47Z</time>
      </trkpt>
      <trkpt lat="44.40302" lon="4.4146">
        <ele>96.2</ele>
        <time>2024-03-03T15:34:55Z</time>
      </trkpt>
      <trkpt lat="44.40319" lon="4.4145">
        <ele>96.1</ele>
        <time>2024-03-03T15:35:03Z</time>
      </trkpt>
      <trkpt lat="44.40335" lon="4.41434">
        <ele>96.3</ele>
        <time>2024-03-03T15:35:10Z</time>
      </trkpt>
      <trkpt lat="44.40352" lon="4.4142">
        <ele>97.4</ele>
        <time>2024-03-03T15:35:18Z</time>
      </trkpt>
      <trkpt lat="44.40361" lon="4.41406">
        <ele>98.7</ele>
        <time>2024-03-03T15:35:25Z</time>
      </trkpt>
      <trkpt lat="44.40342" lon="4.41411">
        <ele>100.8</ele>
        <time>2024-03-03T15:35:36Z</time>
      </trkpt>
      <trkpt lat="44.40342" lon="4.41407">
        <ele>101.1</ele>
        <time>2024-03-03T15:35:38Z</time>
      </trkpt>
      <trkpt lat="44.40358" lon="4.41391">
        <ele>102.5</ele>
        <time>2024-03-03T15:35:47Z</time>
      </trkpt>
      <trkpt lat="44.40372" lon="4.41371">
        <ele>104.2</ele>
        <time>2024-03-03T15:35:57Z</time>
      </trkpt>
      <trkpt lat="44.40374" lon="4.41369">
        <ele>104.2</ele>
        <time>2024-03-03T15:35:59Z</time>
      </trkpt>
      <trkpt lat="44.40381" lon="4.41394">
        <ele>104</ele>
        <time>2024-03-03T15:36:10Z</time>
      </trkpt>
      <trkpt lat="44.40393" lon="4.41417">
        <ele>103.8</ele>
        <time>2024-03-03T15:36:19Z</time>
      </trkpt>
      <trkpt lat="44.40404" lon="4.41441">
        <ele>103.8</ele>
        <time>2024-03-03T15:36:28Z</time>
      </trkpt>
      <trkpt lat="44.40414" lon="4.41465">
        <ele>103.8</ele>
        <time>2024-03-03T15:36:36Z</time>
      </trkpt>
      <trkpt lat="44.40424" lon="4.4149">
        <ele>103.9</ele>
        <time>2024-03-03T15:36:44Z</time>
      </trkpt>
      <trkpt lat="44.40434" lon="4.41514">
        <ele>104</ele>
        <time>2024-03-03T15:36:51Z</time>
      </trkpt>
      <trkpt lat="44.40436" lon="4.41542">
        <ele>104</ele>
        <time>2024-03-03T15:36:58Z</time>
      </trkpt>
      <trkpt lat="44.40431" lon="4.41573">
        <ele>104.2</ele>
        <time>2024-03-03T15:37:06Z</time>
      </trkpt>
      <trkpt lat="44.40421" lon="4.41595">
        <ele>106.7</ele>
        <time>2024-03-03T15:37:15Z</time>
      </trkpt>
      <trkpt lat="44.4042" lon="4.41597">
        <ele>107.5</ele>
        <time>2024-03-03T15:37:20Z</time>
      </trkpt>
      <trkpt lat="44.4042" lon="4.41599">
        <ele>107.7</ele>
        <time>2024-03-03T15:37:22Z</time>
      </trkpt>
      <trkpt lat="44.4042" lon="4.41601">
        <ele>108.6</ele>
        <time>2024-03-03T15:37:25Z</time>
      </trkpt>
      <trkpt lat="44.40422" lon="4.41607">
        <ele>109.8</ele>
        <time>2024-03-03T15:37:31Z</time>
      </trkpt>
      <trkpt lat="44.40427" lon="4.41611">
        <ele>111.4</ele>
        <time>2024-03-03T15:37:35Z</time>
      </trkpt>
      <trkpt lat="44.40446" lon="4.41611">
        <ele>113.8</ele>
        <time>2024-03-03T15:37:46Z</time>
      </trkpt>
      <trkpt lat="44.40466" lon="4.41609">
        <ele>116.4</ele>
        <time>2024-03-03T15:37:57Z</time>
      </trkpt>
      <trkpt lat="44.40471" lon="4.41609">
        <ele>117.4</ele>
        <time>2024-03-03T15:38:02Z</time>
      </trkpt>
      <trkpt lat="44.40477" lon="4.41633">
        <ele>124.3</ele>
        <time>2024-03-03T15:38:25Z</time>
      </trkpt>
      <trkpt lat="44.40478" lon="4.41636">
        <ele>125.8</ele>
        <time>2024-03-03T15:38:26Z</time>
      </trkpt>
      <trkpt lat="44.40481" lon="4.41659">
        <ele>134.5</ele>
        <time>2024-03-03T15:38:45Z</time>
      </trkpt>
      <trkpt lat="44.40476" lon="4.41674">
        <ele>136.4</ele>
        <time>2024-03-03T15:38:56Z</time>
      </trkpt>
      <trkpt lat="44.40459" lon="4.41688">
        <ele>138.9</ele>
        <time>2024-03-03T15:39:12Z</time>
      </trkpt>
      <trkpt lat="44.40443" lon="4.41702">
        <ele>140.7</ele>
        <time>2024-03-03T15:39:23Z</time>
      </trkpt>
      <trkpt lat="44.40428" lon="4.41719">
        <ele>142.5</ele>
        <time>2024-03-03T15:39:35Z</time>
      </trkpt>
      <trkpt lat="44.40411" lon="4.41736">
        <ele>145.1</ele>
        <time>2024-03-03T15:39:45Z</time>
      </trkpt>
      <trkpt lat="44.404" lon="4.41757">
        <ele>147.5</ele>
        <time>2024-03-03T15:39:57Z</time>
      </trkpt>
      <trkpt lat="44.404" lon="4.41782">
        <ele>148.6</ele>
        <time>2024-03-03T15:40:08Z</time>
      </trkpt>
      <trkpt lat="44.40406" lon="4.41811">
        <ele>149.9</ele>
        <time>2024-03-03T15:40:17Z</time>
      </trkpt>
      <trkpt lat="44.40416" lon="4.41835">
        <ele>151.7</ele>
        <time>2024-03-03T15:40:28Z</time>
      </trkpt>
      <trkpt lat="44.40422" lon="4.4186">
        <ele>153.5</ele>
        <time>2024-03-03T15:40:39Z</time>
      </trkpt>
      <trkpt lat="44.40427" lon="4.41887">
        <ele>155.4</ele>
        <time>2024-03-03T15:40:48Z</time>
      </trkpt>
      <trkpt lat="44.40429" lon="4.41914">
        <ele>157.3</ele>
        <time>2024-03-03T15:40:59Z</time>
      </trkpt>
      <trkpt lat="44.40438" lon="4.41936">
        <ele>159.1</ele>
        <time>2024-03-03T15:41:07Z</time>
      </trkpt>
      <trkpt lat="44.40445" lon="4.41962">
        <ele>161.1</ele>
        <time>2024-03-03T15:41:17Z</time>
      </trkpt>
      <trkpt lat="44.40453" lon="4.4199">
        <ele>163.3</ele>
        <time>2024-03-03T15:41:26Z</time>
      </trkpt>
      <trkpt lat="44.4046" lon="4.42015">
        <ele>165.4</ele>
        <time>2024-03-03T15:41:36Z</time>
      </trkpt>
      <trkpt lat="44.40468" lon="4.42042">
        <ele>167.8</ele>
        <time>2024-03-03T15:41:47Z</time>
      </trkpt>
      <trkpt lat="44.40476" lon="4.42066">
        <ele>170.4</ele>
        <time>2024-03-03T15:41:59Z</time>
      </trkpt>
      <trkpt lat="44.40484" lon="4.42093">
        <ele>173.4</ele>
        <time>2024-03-03T15:42:09Z</time>
      </trkpt>
      <trkpt lat="44.4049" lon="4.4212">
        <ele>176.7</ele>
        <time>2024-03-03T15:42:21Z</time>
      </trkpt>
      <trkpt lat="44.40494" lon="4.42145">
        <ele>180</ele>
        <time>2024-03-03T15:42:33Z</time>
      </trkpt>
      <trkpt lat="44.405" lon="4.4217">
        <ele>182.8</ele>
        <time>2024-03-03T15:42:45Z</time>
      </trkpt>
      <trkpt lat="44.40498" lon="4.42197">
        <ele>185.1</ele>
        <time>2024-03-03T15:42:55Z</time>
      </trkpt>
      <trkpt lat="44.40498" lon="4.42207">
        <ele>186</ele>
        <time>2024-03-03T15:42:59Z</time>
      </trkpt>
      <trkpt lat="44.40502" lon="4.42234">
        <ele>189.5</ele>
        <time>2024-03-03T15:43:14Z</time>
      </trkpt>
      <trkpt lat="44.40515" lon="4.42251">
        <ele>192.8</ele>
        <time>2024-03-03T15:43:32Z</time>
      </trkpt>
      <trkpt lat="44.40527" lon="4.42265">
        <ele>195.6</ele>
        <time>2024-03-03T15:43:43Z</time>
      </trkpt>
      <trkpt lat="44.4054" lon="4.42283">
        <ele>199.5</ele>
        <time>2024-03-03T15:43:54Z</time>
      </trkpt>
      <trkpt lat="44.4054" lon="4.42285">
        <ele>199.7</ele>
        <time>2024-03-03T15:43:56Z</time>
      </trkpt>
      <trkpt lat="44.40544" lon="4.42311">
        <ele>203.5</ele>
        <time>2024-03-03T15:44:09Z</time>
      </trkpt>
      <trkpt lat="44.40543" lon="4.42338">
        <ele>207</ele>
        <time>2024-03-03T15:44:21Z</time>
      </trkpt>
      <trkpt lat="44.40539" lon="4.42364">
        <ele>210.2</ele>
        <time>2024-03-03T15:44:32Z</time>
      </trkpt>
      <trkpt lat="44.40537" lon="4.42389">
        <ele>213.3</ele>
        <time>2024-03-03T15:44:42Z</time>
      </trkpt>
      <trkpt lat="44.40533" lon="4.42415">
        <ele>216.3</ele>
        <time>2024-03-03T15:44:54Z</time>
      </trkpt>
      <trkpt lat="44.40528" lon="4.4244">
        <ele>218.7</ele>
        <time>2024-03-03T15:45:03Z</time>
      </trkpt>
      <trkpt lat="44.40515" lon="4.42458">
        <ele>220.9</ele>
        <time>2024-03-03T15:45:14Z</time>
      </trkpt>
      <trkpt lat="44.40504" lon="4.4248">
        <ele>224.3</ele>
        <time>2024-03-03T15:45:26Z</time>
      </trkpt>
      <trkpt lat="44.405" lon="4.42494">
        <ele>226.4</ele>
        <time>2024-03-03T15:45:33Z</time>
      </trkpt>
      <trkpt lat="44.40483" lon="4.42504">
        <ele>230</ele>
        <time>2024-03-03T15:45:45Z</time>
      </trkpt>
      <trkpt lat="44.40467" lon="4.42518">
        <ele>234</ele>
        <time>2024-03-03T15:45:55Z</time>
      </trkpt>
      <trkpt lat="44.40452" lon="4.42533">
        <ele>237.5</ele>
        <time>2024-03-03T15:46:08Z</time>
      </trkpt>
      <trkpt lat="44.4044" lon="4.42555">
        <ele>240.5</ele>
        <time>2024-03-03T15:46:22Z</time>
      </trkpt>
      <trkpt lat="44.40436" lon="4.4258">
        <ele>243.4</ele>
        <time>2024-03-03T15:46:33Z</time>
      </trkpt>
      <trkpt lat="44.40433" lon="4.42607">
        <ele>245.4</ele>
        <time>2024-03-03T15:46:45Z</time>
      </trkpt>
      <trkpt lat="44.4043" lon="4.42635">
        <ele>247.3</ele>
        <time>2024-03-03T15:46:56Z</time>
      </trkpt>
      <trkpt lat="44.40429" lon="4.4266">
        <ele>249</ele>
        <time>2024-03-03T15:47:05Z</time>
      </trkpt>
      <trkpt lat="44.40417" lon="4.4268">
        <ele>250.3</ele>
        <time>2024-03-03T15:47:13Z</time>
      </trkpt>
      <trkpt lat="44.40413" lon="4.42684">
        <ele>250.5</ele>
        <time>2024-03-03T15:47:14Z</time>
      </trkpt>
      <trkpt lat="44.40403" lon="4.42704">
        <ele>251.6</ele>
        <time>2024-03-03T15:47:25Z</time>
      </trkpt>
      <trkpt lat="44.40392" lon="4.42725">
        <ele>251.8</ele>
        <time>2024-03-03T15:47:35Z</time>
      </trkpt>
      <trkpt lat="44.40381" lon="4.42749">
        <ele>251.5</ele>
        <time>2024-03-03T15:47:44Z</time>
      </trkpt>
      <trkpt lat="44.40373" lon="4.42772">
        <ele>250.9</ele>
        <time>2024-03-03T15:47:52Z</time>
      </trkpt>
      <trkpt lat="44.40371" lon="4.42799">
        <ele>250.2</ele>
        <time>2024-03-03T15:48:00Z</time>
      </trkpt>
      <trkpt lat="44.40369" lon="4.42827">
        <ele>250.1</ele>
        <time>2024-03-03T15:48:09Z</time>
      </trkpt>
      <trkpt lat="44.40372" lon="4.42853">
        <ele>250.8</ele>
        <time>2024-03-03T15:48:17Z</time>
      </trkpt>
      <trkpt lat="44.40381" lon="4.42877">
        <ele>251.7</ele>
        <time>2024-03-03T15:48:26Z</time>
      </trkpt>
      <trkpt lat="44.40388" lon="4.42901">
        <ele>252.6</ele>
        <time>2024-03-03T15:48:34Z</time>
      </trkpt>
      <trkpt lat="44.40396" lon="4.42926">
        <ele>254.1</ele>
        <time>2024-03-03T15:48:44Z</time>
      </trkpt>
      <trkpt lat="44.40403" lon="4.42949">
        <ele>254.2</ele>
        <time>2024-03-03T15:48:51Z</time>
      </trkpt>
      <trkpt lat="44.40406" lon="4.42976">
        <ele>253.8</ele>
        <time>2024-03-03T15:49:00Z</time>
      </trkpt>
      <trkpt lat="44.40407" lon="4.43003">
        <ele>253.5</ele>
        <time>2024-03-03T15:49:07Z</time>
      </trkpt>
      <trkpt lat="44.40408" lon="4.4303">
        <ele>253.7</ele>
        <time>2024-03-03T15:49:16Z</time>
      </trkpt>
      <trkpt lat="44.40411" lon="4.43055">
        <ele>254.3</ele>
        <time>2024-03-03T15:49:24Z</time>
      </trkpt>
      <trkpt lat="44.40416" lon="4.43082">
        <ele>255.6</ele>
        <time>2024-03-03T15:49:33Z</time>
      </trkpt>
      <trkpt lat="44.40418" lon="4.43108">
        <ele>257.2</ele>
        <time>2024-03-03T15:49:43Z</time>
      </trkpt>
      <trkpt lat="44.40421" lon="4.43134">
        <ele>259.2</ele>
        <time>2024-03-03T15:49:52Z</time>
      </trkpt>
      <trkpt lat="44.40424" lon="4.43162">
        <ele>261.2</ele>
        <time>2024-03-03T15:50:01Z</time>
      </trkpt>
      <trkpt lat="44.40424" lon="4.43188">
        <ele>263</ele>
        <time>2024-03-03T15:50:10Z</time>
      </trkpt>
      <trkpt lat="44.40426" lon="4.43213">
        <ele>264.7</ele>
        <time>2024-03-03T15:50:19Z</time>
      </trkpt>
      <trkpt lat="44.40427" lon="4.4324">
        <ele>266.2</ele>
        <time>2024-03-03T15:50:30Z</time>
      </trkpt>
      <trkpt lat="44.4043" lon="4.43267">
        <ele>268</ele>
        <time>2024-03-03T15:50:41Z</time>
      </trkpt>
      <trkpt lat="44.40431" lon="4.43293">
        <ele>269.7</ele>
        <time>2024-03-03T15:50:51Z</time>
      </trkpt>
      <trkpt lat="44.40428" lon="4.43317">
        <ele>271.5</ele>
        <time>2024-03-03T15:51:00Z</time>
      </trkpt>
      <trkpt lat="44.40428" lon="4.43343">
        <ele>273.3</ele>
        <time>2024-03-03T15:51:08Z</time>
      </trkpt>
      <trkpt lat="44.40428" lon="4.4337">
        <ele>275.2</ele>
        <time>2024-03-03T15:51:16Z</time>
      </trkpt>
      <trkpt lat="44.40427" lon="4.43396">
        <ele>277</ele>
        <time>2024-03-03T15:51:25Z</time>
      </trkpt>
      <trkpt lat="44.40423" lon="4.43417">
        <ele>278.7</ele>
        <time>2024-03-03T15:51:33Z</time>
      </trkpt>
      <trkpt lat="44.40404" lon="4.43419">
        <ele>281.3</ele>
        <time>2024-03-03T15:51:43Z</time>
      </trkpt>
      <trkpt lat="44.40384" lon="4.4342">
        <ele>283.6</ele>
        <time>2024-03-03T15:51:53Z</time>
      </trkpt>
      <trkpt lat="44.40365" lon="4.4342">
        <ele>285.8</ele>
        <time>2024-03-03T15:52:03Z</time>
      </trkpt>
      <trkpt lat="44.40349" lon="4.43434">
        <ele>288.1</ele>
        <time>2024-03-03T15:52:12Z</time>
      </trkpt>
      <trkpt lat="44.40335" lon="4.43454">
        <ele>290.7</ele>
        <time>2024-03-03T15:52:22Z</time>
      </trkpt>
      <trkpt lat="44.40329" lon="4.43462">
        <ele>291.7</ele>
        <time>2024-03-03T15:52:29Z</time>
      </trkpt>
      <trkpt lat="44.40311" lon="4.43458">
        <ele>291.8</ele>
        <time>2024-03-03T15:52:37Z</time>
      </trkpt>
      <trkpt lat="44.40295" lon="4.43442">
        <ele>292</ele>
        <time>2024-03-03T15:52:45Z</time>
      </trkpt>
      <trkpt lat="44.40277" lon="4.43426">
        <ele>292.4</ele>
        <time>2024-03-03T15:52:52Z</time>
      </trkpt>
      <trkpt lat="44.40262" lon="4.43407">
        <ele>292.6</ele>
        <time>2024-03-03T15:53:01Z</time>
      </trkpt>
      <trkpt lat="44.40245" lon="4.43391">
        <ele>292.7</ele>
        <time>2024-03-03T15:53:10Z</time>
      </trkpt>
      <trkpt lat="44.40229" lon="4.43375">
        <ele>293</ele>
        <time>2024-03-03T15:53:19Z</time>
      </trkpt>
      <trkpt lat="44.40214" lon="4.43359">
        <ele>293.2</ele>
        <time>2024-03-03T15:53:26Z</time>
      </trkpt>
      <trkpt lat="44.40198" lon="4.43344">
        <ele>293.3</ele>
        <time>2024-03-03T15:53:33Z</time>
      </trkpt>
      <trkpt lat="44.40183" lon="4.43323">
        <ele>293.8</ele>
        <time>2024-03-03T15:53:40Z</time>
      </trkpt>
      <trkpt lat="44.40169" lon="4.43306">
        <ele>294.8</ele>
        <time>2024-03-03T15:53:48Z</time>
      </trkpt>
      <trkpt lat="44.40154" lon="4.43288">
        <ele>295.9</ele>
        <time>2024-03-03T15:53:57Z</time>
      </trkpt>
      <trkpt lat="44.40138" lon="4.43272">
        <ele>297.1</ele>
        <time>2024-03-03T15:54:05Z</time>
      </trkpt>
      <trkpt lat="44.40125" lon="4.43255">
        <ele>298.2</ele>
        <time>2024-03-03T15:54:13Z</time>
      </trkpt>
      <trkpt lat="44.40111" lon="4.43235">
        <ele>299.6</ele>
        <time>2024-03-03T15:54:20Z</time>
      </trkpt>
      <trkpt lat="44.40096" lon="4.43217">
        <ele>300.7</ele>
        <time>2024-03-03T15:54:28Z</time>
      </trkpt>
      <trkpt lat="44.40082" lon="4.43199">
        <ele>301.3</ele>
        <time>2024-03-03T15:54:35Z</time>
      </trkpt>
      <trkpt lat="44.40068" lon="4.43183">
        <ele>301.8</ele>
        <time>2024-03-03T15:54:43Z</time>
      </trkpt>
      <trkpt lat="44.40052" lon="4.43167">
        <ele>302.5</ele>
        <time>2024-03-03T15:54:50Z</time>
      </trkpt>
      <trkpt lat="44.40035" lon="4.43157">
        <ele>303.1</ele>
        <time>2024-03-03T15:54:57Z</time>
      </trkpt>
      <trkpt lat="44.40015" lon="4.43151">
        <ele>303.6</ele>
        <time>2024-03-03T15:55:05Z</time>
      </trkpt>
      <trkpt lat="44.39997" lon="4.43155">
        <ele>303.8</ele>
        <time>2024-03-03T15:55:12Z</time>
      </trkpt>
      <trkpt lat="44.39977" lon="4.43155">
        <ele>304</ele>
        <time>2024-03-03T15:55:20Z</time>
      </trkpt>
      <trkpt lat="44.39959" lon="4.43153">
        <ele>304.3</ele>
        <time>2024-03-03T15:55:27Z</time>
      </trkpt>
      <trkpt lat="44.39942" lon="4.43145">
        <ele>304.2</ele>
        <time>2024-03-03T15:55:33Z</time>
      </trkpt>
      <trkpt lat="44.39922" lon="4.43135">
        <ele>304.4</ele>
        <time>2024-03-03T15:55:40Z</time>
      </trkpt>
      <trkpt lat="44.39903" lon="4.43131">
        <ele>305.1</ele>
        <time>2024-03-03T15:55:48Z</time>
      </trkpt>
      <trkpt lat="44.39885" lon="4.43125">
        <ele>306.5</ele>
        <time>2024-03-03T15:55:56Z</time>
      </trkpt>
      <trkpt lat="44.39866" lon="4.43118">
        <ele>308.6</ele>
        <time>2024-03-03T15:56:05Z</time>
      </trkpt>
      <trkpt lat="44.39848" lon="4.43111">
        <ele>310.7</ele>
        <time>2024-03-03T15:56:14Z</time>
      </trkpt>
      <trkpt lat="44.39831" lon="4.43102">
        <ele>312</ele>
        <time>2024-03-03T15:56:21Z</time>
      </trkpt>
      <trkpt lat="44.39813" lon="4.43092">
        <ele>312.9</ele>
        <time>2024-03-03T15:56:29Z</time>
      </trkpt>
      <trkpt lat="44.39796" lon="4.43081">
        <ele>313.6</ele>
        <time>2024-03-03T15:56:36Z</time>
      </trkpt>
      <trkpt lat="44.39779" lon="4.4307">
        <ele>314.4</ele>
        <time>2024-03-03T15:56:43Z</time>
      </trkpt>
      <trkpt lat="44.39761" lon="4.43059">
        <ele>315.2</ele>
        <time>2024-03-03T15:56:50Z</time>
      </trkpt>
      <trkpt lat="44.39742" lon="4.43049">
        <ele>315.7</ele>
        <time>2024-03-03T15:56:58Z</time>
      </trkpt>
      <trkpt lat="44.39724" lon="4.4304">
        <ele>316.2</ele>
        <time>2024-03-03T15:57:06Z</time>
      </trkpt>
      <trkpt lat="44.39706" lon="4.43035">
        <ele>317</ele>
        <time>2024-03-03T15:57:15Z</time>
      </trkpt>
      <trkpt lat="44.39686" lon="4.43029">
        <ele>318.5</ele>
        <time>2024-03-03T15:57:23Z</time>
      </trkpt>
      <trkpt lat="44.39666" lon="4.43028">
        <ele>320.4</ele>
        <time>2024-03-03T15:57:31Z</time>
      </trkpt>
      <trkpt lat="44.39646" lon="4.43031">
        <ele>322.2</ele>
        <time>2024-03-03T15:57:39Z</time>
      </trkpt>
      <trkpt lat="44.39626" lon="4.43031">
        <ele>323.5</ele>
        <time>2024-03-03T15:57:46Z</time>
      </trkpt>
      <trkpt lat="44.3961" lon="4.43037">
        <ele>324</ele>
        <time>2024-03-03T15:57:53Z</time>
      </trkpt>
      <trkpt lat="44.39594" lon="4.43055">
        <ele>323.9</ele>
        <time>2024-03-03T15:58:00Z</time>
      </trkpt>
      <trkpt lat="44.39576" lon="4.43065">
        <ele>324.1</ele>
        <time>2024-03-03T15:58:07Z</time>
      </trkpt>
      <trkpt lat="44.3956" lon="4.43078">
        <ele>324.6</ele>
        <time>2024-03-03T15:58:15Z</time>
      </trkpt>
      <trkpt lat="44.39541" lon="4.43098">
        <ele>325</ele>
        <time>2024-03-03T15:58:22Z</time>
      </trkpt>
      <trkpt lat="44.39532" lon="4.43101">
        <ele>325.1</ele>
        <time>2024-03-03T15:58:28Z</time>
      </trkpt>
      <trkpt lat="44.3952" lon="4.43078">
        <ele>325.4</ele>
        <time>2024-03-03T15:58:36Z</time>
      </trkpt>
      <trkpt lat="44.39506" lon="4.43061">
        <ele>326</ele>
        <time>2024-03-03T15:58:43Z</time>
      </trkpt>
      <trkpt lat="44.39489" lon="4.43054">
        <ele>327.4</ele>
        <time>2024-03-03T15:58:52Z</time>
      </trkpt>
      <trkpt lat="44.39486" lon="4.43053">
        <ele>327.6</ele>
        <time>2024-03-03T15:58:54Z</time>
      </trkpt>
      <trkpt lat="44.39485" lon="4.43052">
        <ele>327.7</ele>
        <time>2024-03-03T15:58:56Z</time>
      </trkpt>
      <trkpt lat="44.39483" lon="4.43051">
        <ele>327.7</ele>
        <time>2024-03-03T16:01:10Z</time>
      </trkpt>
      <trkpt lat="44.3948" lon="4.43051">
        <ele>327.9</ele>
        <time>2024-03-03T16:01:12Z</time>
      </trkpt>
      <trkpt lat="44.39462" lon="4.4305">
        <ele>327.3</ele>
        <time>2024-03-03T16:01:20Z</time>
      </trkpt>
      <trkpt lat="44.39442" lon="4.43046">
        <ele>324.4</ele>
        <time>2024-03-03T16:01:28Z</time>
      </trkpt>
      <trkpt lat="44.39425" lon="4.43057">
        <ele>320</ele>
        <time>2024-03-03T16:01:35Z</time>
      </trkpt>
      <trkpt lat="44.39409" lon="4.43074">
        <ele>315.6</ele>
        <time>2024-03-03T16:01:40Z</time>
      </trkpt>
      <trkpt lat="44.39392" lon="4.43085">
        <ele>313</ele>
        <time>2024-03-03T16:01:46Z</time>
      </trkpt>
      <trkpt lat="44.39376" lon="4.43068">
        <ele>310.5</ele>
        <time>2024-03-03T16:01:54Z</time>
      </trkpt>
      <trkpt lat="44.39356" lon="4.43057">
        <ele>307.7</ele>
        <time>2024-03-03T16:02:01Z</time>
      </trkpt>
      <trkpt lat="44.3934" lon="4.43046">
        <ele>305.4</ele>
        <time>2024-03-03T16:02:07Z</time>
      </trkpt>
      <trkpt lat="44.39324" lon="4.43032">
        <ele>303.4</ele>
        <time>2024-03-03T16:02:12Z</time>
      </trkpt>
      <trkpt lat="44.39308" lon="4.43018">
        <ele>301.4</ele>
        <time>2024-03-03T16:02:17Z</time>
      </trkpt>
      <trkpt lat="44.39293" lon="4.43004">
        <ele>299.5</ele>
        <time>2024-03-03T16:02:22Z</time>
      </trkpt>
      <trkpt lat="44.39276" lon="4.42992">
        <ele>297.8</ele>
        <time>2024-03-03T16:02:28Z</time>
      </trkpt>
      <trkpt lat="44.39258" lon="4.42981">
        <ele>296.2</ele>
        <time>2024-03-03T16:02:34Z</time>
      </trkpt>
      <trkpt lat="44.39239" lon="4.42972">
        <ele>294.9</ele>
        <time>2024-03-03T16:02:40Z</time>
      </trkpt>
      <trkpt lat="44.39222" lon="4.42964">
        <ele>294.1</ele>
        <time>2024-03-03T16:02:46Z</time>
      </trkpt>
      <trkpt lat="44.39205" lon="4.42953">
        <ele>293.7</ele>
        <time>2024-03-03T16:02:53Z</time>
      </trkpt>
      <trkpt lat="44.39187" lon="4.42943">
        <ele>293.3</ele>
        <time>2024-03-03T16:02:59Z</time>
      </trkpt>
      <trkpt lat="44.39171" lon="4.42931">
        <ele>292.4</ele>
        <time>2024-03-03T16:03:05Z</time>
      </trkpt>
      <trkpt lat="44.39156" lon="4.42913">
        <ele>290.9</ele>
        <time>2024-03-03T16:03:11Z</time>
      </trkpt>
      <trkpt lat="44.3914" lon="4.42897">
        <ele>289.1</ele>
        <time>2024-03-03T16:03:17Z</time>
      </trkpt>
      <trkpt lat="44.39128" lon="4.42901">
        <ele>288.1</ele>
        <time>2024-03-03T16:03:22Z</time>
      </trkpt>
      <trkpt lat="44.39127" lon="4.42927">
        <ele>286.9</ele>
        <time>2024-03-03T16:03:28Z</time>
      </trkpt>
      <trkpt lat="44.39125" lon="4.4295">
        <ele>285.4</ele>
        <time>2024-03-03T16:03:34Z</time>
      </trkpt>
      <trkpt lat="44.39115" lon="4.42928">
        <ele>283.6</ele>
        <time>2024-03-03T16:03:42Z</time>
      </trkpt>
      <trkpt lat="44.39107" lon="4.42904">
        <ele>281.8</ele>
        <time>2024-03-03T16:03:48Z</time>
      </trkpt>
      <trkpt lat="44.391" lon="4.42889">
        <ele>280.6</ele>
        <time>2024-03-03T16:03:53Z</time>
      </trkpt>
      <trkpt lat="44.39098" lon="4.42892">
        <ele>280.3</ele>
        <time>2024-03-03T16:03:55Z</time>
      </trkpt>
      <trkpt lat="44.39098" lon="4.42918">
        <ele>278.6</ele>
        <time>2024-03-03T16:04:02Z</time>
      </trkpt>
      <trkpt lat="44.391" lon="4.42943">
        <ele>277.1</ele>
        <time>2024-03-03T16:04:09Z</time>
      </trkpt>
      <trkpt lat="44.39107" lon="4.42969">
        <ele>275.6</ele>
        <time>2024-03-03T16:04:16Z</time>
      </trkpt>
      <trkpt lat="44.39115" lon="4.42995">
        <ele>274.5</ele>
        <time>2024-03-03T16:04:24Z</time>
      </trkpt>
      <trkpt lat="44.39117" lon="4.43021">
        <ele>273.6</ele>
        <time>2024-03-03T16:04:31Z</time>
      </trkpt>
      <trkpt lat="44.39115" lon="4.43027">
        <ele>273.4</ele>
        <time>2024-03-03T16:04:33Z</time>
      </trkpt>
      <trkpt lat="44.39113" lon="4.43027">
        <ele>273.4</ele>
        <time>2024-03-03T16:04:35Z</time>
      </trkpt>
      <trkpt lat="44.39112" lon="4.43011">
        <ele>273</ele>
        <time>2024-03-03T16:04:43Z</time>
      </trkpt>
      <trkpt lat="44.39097" lon="4.42992">
        <ele>271.8</ele>
        <time>2024-03-03T16:04:51Z</time>
      </trkpt>
      <trkpt lat="44.39087" lon="4.42972">
        <ele>270.7</ele>
        <time>2024-03-03T16:04:58Z</time>
      </trkpt>
      <trkpt lat="44.39076" lon="4.42948">
        <ele>269.6</ele>
        <time>2024-03-03T16:05:06Z</time>
      </trkpt>
      <trkpt lat="44.39065" lon="4.42922">
        <ele>268.5</ele>
        <time>2024-03-03T16:05:11Z</time>
      </trkpt>
      <trkpt lat="44.39056" lon="4.42898">
        <ele>267.4</ele>
        <time>2024-03-03T16:05:16Z</time>
      </trkpt>
      <trkpt lat="44.39046" lon="4.42878">
        <ele>266.6</ele>
        <time>2024-03-03T16:05:22Z</time>
      </trkpt>
      <trkpt lat="44.39042" lon="4.42851">
        <ele>267</ele>
        <time>2024-03-03T16:05:30Z</time>
      </trkpt>
      <trkpt lat="44.39045" lon="4.42826">
        <ele>269.1</ele>
        <time>2024-03-03T16:05:37Z</time>
      </trkpt>
      <trkpt lat="44.39048" lon="4.4281">
        <ele>270.3</ele>
        <time>2024-03-03T16:05:42Z</time>
      </trkpt>
      <trkpt lat="44.39043" lon="4.42784">
        <ele>270.6</ele>
        <time>2024-03-03T16:05:49Z</time>
      </trkpt>
      <trkpt lat="44.39046" lon="4.42777">
        <ele>270.4</ele>
        <time>2024-03-03T16:05:52Z</time>
      </trkpt>
      <trkpt lat="44.39064" lon="4.42788">
        <ele>268.9</ele>
        <time>2024-03-03T16:06:00Z</time>
      </trkpt>
      <trkpt lat="44.39081" lon="4.42782">
        <ele>268.3</ele>
        <time>2024-03-03T16:06:07Z</time>
      </trkpt>
      <trkpt lat="44.39084" lon="4.42774">
        <ele>268.6</ele>
        <time>2024-03-03T16:06:10Z</time>
      </trkpt>
      <trkpt lat="44.3908" lon="4.42748">
        <ele>270.9</ele>
        <time>2024-03-03T16:06:19Z</time>
      </trkpt>
      <trkpt lat="44.39084" lon="4.42731">
        <ele>273.4</ele>
        <time>2024-03-03T16:06:28Z</time>
      </trkpt>
      <trkpt lat="44.39077" lon="4.42708">
        <ele>276.8</ele>
        <time>2024-03-03T16:06:39Z</time>
      </trkpt>
      <trkpt lat="44.39075" lon="4.42698">
        <ele>278.1</ele>
        <time>2024-03-03T16:06:44Z</time>
      </trkpt>
      <trkpt lat="44.39076" lon="4.42691">
        <ele>278.9</ele>
        <time>2024-03-03T16:06:48Z</time>
      </trkpt>
      <trkpt lat="44.39071" lon="4.42667">
        <ele>282.2</ele>
        <time>2024-03-03T16:06:59Z</time>
      </trkpt>
      <trkpt lat="44.39065" lon="4.42641">
        <ele>285</ele>
        <time>2024-03-03T16:07:11Z</time>
      </trkpt>
      <trkpt lat="44.39057" lon="4.42616">
        <ele>287.1</ele>
        <time>2024-03-03T16:07:22Z</time>
      </trkpt>
      <trkpt lat="44.39048" lon="4.42593">
        <ele>289</ele>
        <time>2024-03-03T16:07:31Z</time>
      </trkpt>
      <trkpt lat="44.39034" lon="4.42573">
        <ele>289.4</ele>
        <time>2024-03-03T16:07:39Z</time>
      </trkpt>
      <trkpt lat="44.39024" lon="4.42552">
        <ele>289.3</ele>
        <time>2024-03-03T16:07:46Z</time>
      </trkpt>
      <trkpt lat="44.39021" lon="4.42525">
        <ele>289.8</ele>
        <time>2024-03-03T16:07:55Z</time>
      </trkpt>
      <trkpt lat="44.39018" lon="4.42499">
        <ele>290</ele>
        <time>2024-03-03T16:08:02Z</time>
      </trkpt>
      <trkpt lat="44.39025" lon="4.42475">
        <ele>291</ele>
        <time>2024-03-03T16:08:11Z</time>
      </trkpt>
      <trkpt lat="44.39027" lon="4.42459">
        <ele>291.5</ele>
        <time>2024-03-03T16:08:18Z</time>
      </trkpt>
      <trkpt lat="44.39017" lon="4.42438">
        <ele>291.4</ele>
        <time>2024-03-03T16:08:25Z</time>
      </trkpt>
      <trkpt lat="44.39006" lon="4.42417">
        <ele>290.9</ele>
        <time>2024-03-03T16:08:31Z</time>
      </trkpt>
      <trkpt lat="44.39004" lon="4.4239">
        <ele>291.1</ele>
        <time>2024-03-03T16:08:39Z</time>
      </trkpt>
      <trkpt lat="44.38995" lon="4.42369">
        <ele>290.3</ele>
        <time>2024-03-03T16:08:47Z</time>
      </trkpt>
      <trkpt lat="44.38981" lon="4.4235">
        <ele>287.6</ele>
        <time>2024-03-03T16:08:55Z</time>
      </trkpt>
      <trkpt lat="44.38977" lon="4.42347">
        <ele>286.7</ele>
        <time>2024-03-03T16:08:58Z</time>
      </trkpt>
      <trkpt lat="44.38961" lon="4.42332">
        <ele>282.9</ele>
        <time>2024-03-03T16:09:07Z</time>
      </trkpt>
      <trkpt lat="44.38949" lon="4.4231">
        <ele>280.4</ele>
        <time>2024-03-03T16:09:14Z</time>
      </trkpt>
      <trkpt lat="44.38937" lon="4.42291">
        <ele>280.8</ele>
        <time>2024-03-03T16:09:22Z</time>
      </trkpt>
      <trkpt lat="44.38923" lon="4.42273">
        <ele>281.6</ele>
        <time>2024-03-03T16:09:29Z</time>
      </trkpt>
      <trkpt lat="44.38906" lon="4.42254">
        <ele>281.9</ele>
        <time>2024-03-03T16:09:38Z</time>
      </trkpt>
      <trkpt lat="44.38902" lon="4.4225">
        <ele>282</ele>
        <time>2024-03-03T16:09:40Z</time>
      </trkpt>
      <trkpt lat="44.38896" lon="4.42226">
        <ele>282.6</ele>
        <time>2024-03-03T16:09:49Z</time>
      </trkpt>
      <trkpt lat="44.38892" lon="4.422">
        <ele>282.4</ele>
        <time>2024-03-03T16:09:57Z</time>
      </trkpt>
      <trkpt lat="44.38886" lon="4.42173">
        <ele>281</ele>
        <time>2024-03-03T16:10:03Z</time>
      </trkpt>
      <trkpt lat="44.38885" lon="4.42146">
        <ele>279.4</ele>
        <time>2024-03-03T16:10:10Z</time>
      </trkpt>
      <trkpt lat="44.38885" lon="4.42121">
        <ele>277.7</ele>
        <time>2024-03-03T16:10:17Z</time>
      </trkpt>
      <trkpt lat="44.38891" lon="4.42094">
        <ele>275.7</ele>
        <time>2024-03-03T16:10:25Z</time>
      </trkpt>
      <trkpt lat="44.38894" lon="4.42075">
        <ele>274.1</ele>
        <time>2024-03-03T16:10:31Z</time>
      </trkpt>
      <trkpt lat="44.38889" lon="4.4206">
        <ele>273.1</ele>
        <time>2024-03-03T16:10:36Z</time>
      </trkpt>
      <trkpt lat="44.38889" lon="4.42033">
        <ele>270.8</ele>
        <time>2024-03-03T16:10:43Z</time>
      </trkpt>
      <trkpt lat="44.38894" lon="4.42008">
        <ele>268.5</ele>
        <time>2024-03-03T16:10:50Z</time>
      </trkpt>
      <trkpt lat="44.38901" lon="4.41984">
        <ele>266.4</ele>
        <time>2024-03-03T16:10:56Z</time>
      </trkpt>
      <trkpt lat="44.38902" lon="4.41971">
        <ele>265.3</ele>
        <time>2024-03-03T16:11:03Z</time>
      </trkpt>
      <trkpt lat="44.38902" lon="4.41972">
        <ele>265.2</ele>
        <time>2024-03-03T16:11:04Z</time>
      </trkpt>
      <trkpt lat="44.38901" lon="4.41965">
        <ele>264.6</ele>
        <time>2024-03-03T16:11:26Z</time>
      </trkpt>
      <trkpt lat="44.38901" lon="4.41937">
        <ele>262.2</ele>
        <time>2024-03-03T16:11:34Z</time>
      </trkpt>
      <trkpt lat="44.38903" lon="4.41911">
        <ele>260.2</ele>
        <time>2024-03-03T16:11:42Z</time>
      </trkpt>
      <trkpt lat="44.38907" lon="4.41884">
        <ele>258.2</ele>
        <time>2024-03-03T16:11:50Z</time>
      </trkpt>
      <trkpt lat="44.38914" lon="4.41857">
        <ele>256.3</ele>
        <time>2024-03-03T16:11:57Z</time>
      </trkpt>
      <trkpt lat="44.38914" lon="4.41853">
        <ele>256</ele>
        <time>2024-03-03T16:11:58Z</time>
      </trkpt>
      <trkpt lat="44.38913" lon="4.41826">
        <ele>254.2</ele>
        <time>2024-03-03T16:12:04Z</time>
      </trkpt>
      <trkpt lat="44.38917" lon="4.41802">
        <ele>252.6</ele>
        <time>2024-03-03T16:12:10Z</time>
      </trkpt>
      <trkpt lat="44.3892" lon="4.41775">
        <ele>250.7</ele>
        <time>2024-03-03T16:12:16Z</time>
      </trkpt>
      <trkpt lat="44.38929" lon="4.4175">
        <ele>248.9</ele>
        <time>2024-03-03T16:12:23Z</time>
      </trkpt>
      <trkpt lat="44.38939" lon="4.41738">
        <ele>248.3</ele>
        <time>2024-03-03T16:12:28Z</time>
      </trkpt>
      <trkpt lat="44.38954" lon="4.41739">
        <ele>248.5</ele>
        <time>2024-03-03T16:12:35Z</time>
      </trkpt>
      <trkpt lat="44.38942" lon="4.41719">
        <ele>249.6</ele>
        <time>2024-03-03T16:12:43Z</time>
      </trkpt>
      <trkpt lat="44.38941" lon="4.41717">
        <ele>249.7</ele>
        <time>2024-03-03T16:12:44Z</time>
      </trkpt>
      <trkpt lat="44.38938" lon="4.417">
        <ele>250.5</ele>
        <time>2024-03-03T16:12:50Z</time>
      </trkpt>
      <trkpt lat="44.38939" lon="4.41678">
        <ele>251.5</ele>
        <time>2024-03-03T16:13:00Z</time>
      </trkpt>
      <trkpt lat="44.3893" lon="4.4166">
        <ele>252.1</ele>
        <time>2024-03-03T16:13:07Z</time>
      </trkpt>
      <trkpt lat="44.38943" lon="4.41641">
        <ele>253</ele>
        <time>2024-03-03T16:13:14Z</time>
      </trkpt>
      <trkpt lat="44.38951" lon="4.41631">
        <ele>253.6</ele>
        <time>2024-03-03T16:13:19Z</time>
      </trkpt>
      <trkpt lat="44.38953" lon="4.41619">
        <ele>253.9</ele>
        <time>2024-03-03T16:13:24Z</time>
      </trkpt>
      <trkpt lat="44.38942" lon="4.41606">
        <ele>254</ele>
        <time>2024-03-03T16:13:30Z</time>
      </trkpt>
      <trkpt lat="44.38939" lon="4.41596">
        <ele>253.9</ele>
        <time>2024-03-03T16:13:33Z</time>
      </trkpt>
      <trkpt lat="44.38929" lon="4.41577">
        <ele>253.7</ele>
        <time>2024-03-03T16:13:38Z</time>
      </trkpt>
      <trkpt lat="44.38926" lon="4.41568">
        <ele>253.7</ele>
        <time>2024-03-03T16:13:42Z</time>
      </trkpt>
      <trkpt lat="44.38928" lon="4.41552">
        <ele>253.7</ele>
        <time>2024-03-03T16:13:47Z</time>
      </trkpt>
      <trkpt lat="44.38926" lon="4.41525">
        <ele>253.6</ele>
        <time>2024-03-03T16:13:54Z</time>
      </trkpt>
      <trkpt lat="44.38923" lon="4.41501">
        <ele>253.2</ele>
        <time>2024-03-03T16:14:01Z</time>
      </trkpt>
      <trkpt lat="44.38922" lon="4.41496">
        <ele>253.1</ele>
        <time>2024-03-03T16:14:03Z</time>
      </trkpt>
      <trkpt lat="44.38914" lon="4.4147">
        <ele>252.4</ele>
        <time>2024-03-03T16:14:11Z</time>
      </trkpt>
      <trkpt lat="44.38913" lon="4.4146">
        <ele>252.2</ele>
        <time>2024-03-03T16:14:14Z</time>
      </trkpt>
      <trkpt lat="44.38907" lon="4.41435">
        <ele>251.6</ele>
        <time>2024-03-03T16:14:22Z</time>
      </trkpt>
      <trkpt lat="44.389" lon="4.41411">
        <ele>250.8</ele>
        <time>2024-03-03T16:14:29Z</time>
      </trkpt>
      <trkpt lat="44.38889" lon="4.41391">
        <ele>249.8</ele>
        <time>2024-03-03T16:14:36Z</time>
      </trkpt>
      <trkpt lat="44.38884" lon="4.41381">
        <ele>249.3</ele>
        <time>2024-03-03T16:14:38Z</time>
      </trkpt>
      <trkpt lat="44.3887" lon="4.4136">
        <ele>248.3</ele>
        <time>2024-03-03T16:14:46Z</time>
      </trkpt>
      <trkpt lat="44.38856" lon="4.41341">
        <ele>246.9</ele>
        <time>2024-03-03T16:14:53Z</time>
      </trkpt>
      <trkpt lat="44.38849" lon="4.41326">
        <ele>246</ele>
        <time>2024-03-03T16:15:00Z</time>
      </trkpt>
      <trkpt lat="44.38851" lon="4.41329">
        <ele>246.2</ele>
        <time>2024-03-03T16:15:03Z</time>
      </trkpt>
      <trkpt lat="44.38851" lon="4.41332">
        <ele>246.3</ele>
        <time>2024-03-03T16:15:05Z</time>
      </trkpt>
      <trkpt lat="44.38858" lon="4.41323">
        <ele>247.1</ele>
        <time>2024-03-03T16:15:46Z</time>
      </trkpt>
      <trkpt lat="44.3886" lon="4.4132">
        <ele>247.3</ele>
        <time>2024-03-03T16:15:49Z</time>
      </trkpt>
      <trkpt lat="44.38877" lon="4.41311">
        <ele>248.3</ele>
        <time>2024-03-03T16:15:55Z</time>
      </trkpt>
      <trkpt lat="44.38882" lon="4.41305">
        <ele>248.6</ele>
        <time>2024-03-03T16:15:58Z</time>
      </trkpt>
      <trkpt lat="44.38898" lon="4.4129">
        <ele>249.5</ele>
        <time>2024-03-03T16:16:06Z</time>
      </trkpt>
      <trkpt lat="44.38915" lon="4.41277">
        <ele>250.1</ele>
        <time>2024-03-03T16:16:15Z</time>
      </trkpt>
      <trkpt lat="44.3893" lon="4.4126">
        <ele>250.4</ele>
        <time>2024-03-03T16:16:21Z</time>
      </trkpt>
      <trkpt lat="44.38941" lon="4.41233">
        <ele>250.5</ele>
        <time>2024-03-03T16:16:29Z</time>
      </trkpt>
      <trkpt lat="44.38942" lon="4.41201">
        <ele>250.1</ele>
        <time>2024-03-03T16:16:37Z</time>
      </trkpt>
      <trkpt lat="44.38945" lon="4.41174">
        <ele>249.6</ele>
        <time>2024-03-03T16:16:45Z</time>
      </trkpt>
      <trkpt lat="44.38945" lon="4.4116">
        <ele>249.3</ele>
        <time>2024-03-03T16:16:48Z</time>
      </trkpt>
      <trkpt lat="44.38938" lon="4.41136">
        <ele>246.2</ele>
        <time>2024-03-03T16:16:55Z</time>
      </trkpt>
      <trkpt lat="44.3894" lon="4.41109">
        <ele>242.5</ele>
        <time>2024-03-03T16:17:02Z</time>
      </trkpt>
      <trkpt lat="44.3894" lon="4.41081">
        <ele>237.8</ele>
        <time>2024-03-03T16:17:10Z</time>
      </trkpt>
      <trkpt lat="44.38947" lon="4.41057">
        <ele>233</ele>
        <time>2024-03-03T16:17:18Z</time>
      </trkpt>
      <trkpt lat="44.38953" lon="4.41029">
        <ele>228.3</ele>
        <time>2024-03-03T16:17:26Z</time>
      </trkpt>
      <trkpt lat="44.38965" lon="4.41011">
        <ele>224.9</ele>
        <time>2024-03-03T16:17:32Z</time>
      </trkpt>
      <trkpt lat="44.38978" lon="4.40991">
        <ele>221.4</ele>
        <time>2024-03-03T16:17:39Z</time>
      </trkpt>
      <trkpt lat="44.38983" lon="4.40975">
        <ele>218.7</ele>
        <time>2024-03-03T16:17:44Z</time>
      </trkpt>
      <trkpt lat="44.38981" lon="4.40949">
        <ele>214</ele>
        <time>2024-03-03T16:17:51Z</time>
      </trkpt>
      <trkpt lat="44.38991" lon="4.40926">
        <ele>208.5</ele>
        <time>2024-03-03T16:18:01Z</time>
      </trkpt>
      <trkpt lat="44.38999" lon="4.40915">
        <ele>205.4</ele>
        <time>2024-03-03T16:18:06Z</time>
      </trkpt>
      <trkpt lat="44.39013" lon="4.40896">
        <ele>200.1</ele>
        <time>2024-03-03T16:18:15Z</time>
      </trkpt>
      <trkpt lat="44.3903" lon="4.40886">
        <ele>196.5</ele>
        <time>2024-03-03T16:18:22Z</time>
      </trkpt>
      <trkpt lat="44.39049" lon="4.40886">
        <ele>192.7</ele>
        <time>2024-03-03T16:18:30Z</time>
      </trkpt>
      <trkpt lat="44.39067" lon="4.40879">
        <ele>188.6</ele>
        <time>2024-03-03T16:18:38Z</time>
      </trkpt>
      <trkpt lat="44.39083" lon="4.40866">
        <ele>184.3</ele>
        <time>2024-03-03T16:18:46Z</time>
      </trkpt>
      <trkpt lat="44.39099" lon="4.40852">
        <ele>179.9</ele>
        <time>2024-03-03T16:18:54Z</time>
      </trkpt>
      <trkpt lat="44.39116" lon="4.40841">
        <ele>175.9</ele>
        <time>2024-03-03T16:19:01Z</time>
      </trkpt>
      <trkpt lat="44.39134" lon="4.40826">
        <ele>171.8</ele>
        <time>2024-03-03T16:19:08Z</time>
      </trkpt>
      <trkpt lat="44.39147" lon="4.40806">
        <ele>168</ele>
        <time>2024-03-03T16:19:15Z</time>
      </trkpt>
      <trkpt lat="44.39161" lon="4.40787">
        <ele>164.4</ele>
        <time>2024-03-03T16:19:23Z</time>
      </trkpt>
      <trkpt lat="44.39171" lon="4.40778">
        <ele>162.9</ele>
        <time>2024-03-03T16:19:29Z</time>
      </trkpt>
      <trkpt lat="44.39167" lon="4.40768">
        <ele>161.5</ele>
        <time>2024-03-03T16:19:33Z</time>
      </trkpt>
      <trkpt lat="44.39182" lon="4.40755">
        <ele>156.1</ele>
        <time>2024-03-03T16:19:40Z</time>
      </trkpt>
      <trkpt lat="44.39201" lon="4.40771">
        <ele>152.6</ele>
        <time>2024-03-03T16:19:47Z</time>
      </trkpt>
      <trkpt lat="44.39214" lon="4.40791">
        <ele>149.8</ele>
        <time>2024-03-03T16:19:56Z</time>
      </trkpt>
      <trkpt lat="44.39235" lon="4.40788">
        <ele>146.2</ele>
        <time>2024-03-03T16:20:03Z</time>
      </trkpt>
      <trkpt lat="44.39252" lon="4.40783">
        <ele>143.6</ele>
        <time>2024-03-03T16:20:09Z</time>
      </trkpt>
      <trkpt lat="44.3926" lon="4.4079">
        <ele>142.6</ele>
        <time>2024-03-03T16:20:13Z</time>
      </trkpt>
      <trkpt lat="44.39274" lon="4.40806">
        <ele>140.7</ele>
        <time>2024-03-03T16:20:20Z</time>
      </trkpt>
      <trkpt lat="44.39294" lon="4.40812">
        <ele>138.8</ele>
        <time>2024-03-03T16:20:28Z</time>
      </trkpt>
      <trkpt lat="44.39314" lon="4.40816">
        <ele>136.9</ele>
        <time>2024-03-03T16:20:35Z</time>
      </trkpt>
      <trkpt lat="44.39333" lon="4.40826">
        <ele>134.2</ele>
        <time>2024-03-03T16:20:42Z</time>
      </trkpt>
      <trkpt lat="44.39353" lon="4.40833">
        <ele>131</ele>
        <time>2024-03-03T16:20:49Z</time>
      </trkpt>
      <trkpt lat="44.39376" lon="4.40835">
        <ele>127</ele>
        <time>2024-03-03T16:20:56Z</time>
      </trkpt>
      <trkpt lat="44.39397" lon="4.4083">
        <ele>123.3</ele>
        <time>2024-03-03T16:21:02Z</time>
      </trkpt>
      <trkpt lat="44.39411" lon="4.40814">
        <ele>120</ele>
        <time>2024-03-03T16:21:08Z</time>
      </trkpt>
      <trkpt lat="44.39421" lon="4.40793">
        <ele>116</ele>
        <time>2024-03-03T16:21:16Z</time>
      </trkpt>
      <trkpt lat="44.39437" lon="4.40778">
        <ele>110.5</ele>
        <time>2024-03-03T16:21:24Z</time>
      </trkpt>
      <trkpt lat="44.3945" lon="4.40754">
        <ele>104.4</ele>
        <time>2024-03-03T16:21:31Z</time>
      </trkpt>
      <trkpt lat="44.39457" lon="4.40726">
        <ele>100.6</ele>
        <time>2024-03-03T16:21:38Z</time>
      </trkpt>
      <trkpt lat="44.39461" lon="4.40699">
        <ele>97.4</ele>
        <time>2024-03-03T16:21:46Z</time>
      </trkpt>
      <trkpt lat="44.39461" lon="4.40673">
        <ele>94.9</ele>
        <time>2024-03-03T16:21:54Z</time>
      </trkpt>
      <trkpt lat="44.39453" lon="4.40665">
        <ele>94.8</ele>
        <time>2024-03-03T16:22:03Z</time>
      </trkpt>
      <trkpt lat="44.39462" lon="4.40675">
        <ele>94.8</ele>
        <time>2024-03-03T16:22:09Z</time>
      </trkpt>
      <trkpt lat="44.39461" lon="4.40672">
        <ele>94.8</ele>
        <time>2024-03-03T16:22:48Z</time>
      </trkpt>
      <trkpt lat="44.39455" lon="4.40663">
        <ele>94.9</ele>
        <time>2024-03-03T16:22:52Z</time>
      </trkpt>
      <trkpt lat="44.39439" lon="4.40647">
        <ele>95.1</ele>
        <time>2024-03-03T16:22:59Z</time>
      </trkpt>
      <trkpt lat="44.39418" lon="4.40634">
        <ele>95.5</ele>
        <time>2024-03-03T16:23:06Z</time>
      </trkpt>
      <trkpt lat="44.394" lon="4.40618">
        <ele>95.6</ele>
        <time>2024-03-03T16:23:14Z</time>
      </trkpt>
      <trkpt lat="44.39385" lon="4.40601">
        <ele>95.6</ele>
        <time>2024-03-03T16:23:21Z</time>
      </trkpt>
      <trkpt lat="44.3937" lon="4.40586">
        <ele>95.5</ele>
        <time>2024-03-03T16:23:28Z</time>
      </trkpt>
      <trkpt lat="44.39354" lon="4.40563">
        <ele>95.2</ele>
        <time>2024-03-03T16:23:35Z</time>
      </trkpt>
      <trkpt lat="44.39342" lon="4.40538">
        <ele>94.9</ele>
        <time>2024-03-03T16:23:42Z</time>
      </trkpt>
      <trkpt lat="44.39333" lon="4.40516">
        <ele>94.6</ele>
        <time>2024-03-03T16:23:49Z</time>
      </trkpt>
      <trkpt lat="44.39326" lon="4.40486">
        <ele>94.5</ele>
        <time>2024-03-03T16:23:56Z</time>
      </trkpt>
      <trkpt lat="44.39318" lon="4.40461">
        <ele>94.5</ele>
        <time>2024-03-03T16:24:04Z</time>
      </trkpt>
      <trkpt lat="44.39317" lon="4.4045">
        <ele>94.5</ele>
        <time>2024-03-03T16:24:06Z</time>
      </trkpt>
      <trkpt lat="44.39326" lon="4.40422">
        <ele>94.3</ele>
        <time>2024-03-03T16:24:13Z</time>
      </trkpt>
      <trkpt lat="44.39339" lon="4.40404">
        <ele>94.3</ele>
        <time>2024-03-03T16:24:19Z</time>
      </trkpt>
      <trkpt lat="44.39355" lon="4.40391">
        <ele>93.9</ele>
        <time>2024-03-03T16:24:25Z</time>
      </trkpt>
      <trkpt lat="44.39376" lon="4.40385">
        <ele>93.5</ele>
        <time>2024-03-03T16:24:32Z</time>
      </trkpt>
      <trkpt lat="44.39392" lon="4.40375">
        <ele>93.4</ele>
        <time>2024-03-03T16:24:39Z</time>
      </trkpt>
      <trkpt lat="44.39411" lon="4.4037">
        <ele>93.2</ele>
        <time>2024-03-03T16:24:44Z</time>
      </trkpt>
      <trkpt lat="44.3943" lon="4.40365">
        <ele>93.1</ele>
        <time>2024-03-03T16:24:50Z</time>
      </trkpt>
      <trkpt lat="44.39449" lon="4.4036">
        <ele>93.1</ele>
        <time>2024-03-03T16:24:57Z</time>
      </trkpt>
      <trkpt lat="44.3947" lon="4.40356">
        <ele>93</ele>
        <time>2024-03-03T16:25:05Z</time>
      </trkpt>
      <trkpt lat="44.3949" lon="4.40351">
        <ele>92.8</ele>
        <time>2024-03-03T16:25:12Z</time>
      </trkpt>
      <trkpt lat="44.39513" lon="4.40345">
        <ele>92.7</ele>
        <time>2024-03-03T16:25:20Z</time>
      </trkpt>
      <trkpt lat="44.39532" lon="4.40341">
        <ele>92.5</ele>
        <time>2024-03-03T16:25:27Z</time>
      </trkpt>
      <trkpt lat="44.39552" lon="4.40337">
        <ele>92.4</ele>
        <time>2024-03-03T16:25:35Z</time>
      </trkpt>
      <trkpt lat="44.39572" lon="4.40333">
        <ele>92.3</ele>
        <time>2024-03-03T16:25:42Z</time>
      </trkpt>
      <trkpt lat="44.3959" lon="4.40325">
        <ele>92.1</ele>
        <time>2024-03-03T16:25:49Z</time>
      </trkpt>
      <trkpt lat="44.3961" lon="4.40314">
        <ele>92</ele>
        <time>2024-03-03T16:25:56Z</time>
      </trkpt>
      <trkpt lat="44.39626" lon="4.40303">
        <ele>91.9</ele>
        <time>2024-03-03T16:26:02Z</time>
      </trkpt>
      <trkpt lat="44.39643" lon="4.40289">
        <ele>91.9</ele>
        <time>2024-03-03T16:26:09Z</time>
      </trkpt>
      <trkpt lat="44.3966" lon="4.40272">
        <ele>91.9</ele>
        <time>2024-03-03T16:26:16Z</time>
      </trkpt>
      <trkpt lat="44.39675" lon="4.40255">
        <ele>91.9</ele>
        <time>2024-03-03T16:26:22Z</time>
      </trkpt>
      <trkpt lat="44.3969" lon="4.40237">
        <ele>91.9</ele>
        <time>2024-03-03T16:26:28Z</time>
      </trkpt>
      <trkpt lat="44.39704" lon="4.4022">
        <ele>91.9</ele>
        <time>2024-03-03T16:26:34Z</time>
      </trkpt>
      <trkpt lat="44.39719" lon="4.40201">
        <ele>91.8</ele>
        <time>2024-03-03T16:26:40Z</time>
      </trkpt>
      <trkpt lat="44.39733" lon="4.40182">
        <ele>91.8</ele>
        <time>2024-03-03T16:26:46Z</time>
      </trkpt>
      <trkpt lat="44.39743" lon="4.40161">
        <ele>91.8</ele>
        <time>2024-03-03T16:26:52Z</time>
      </trkpt>
      <trkpt lat="44.39754" lon="4.40136">
        <ele>91.7</ele>
        <time>2024-03-03T16:26:59Z</time>
      </trkpt>
      <trkpt lat="44.39763" lon="4.40111">
        <ele>91.6</ele>
        <time>2024-03-03T16:27:05Z</time>
      </trkpt>
      <trkpt lat="44.39773" lon="4.40082">
        <ele>91.6</ele>
        <time>2024-03-03T16:27:12Z</time>
      </trkpt>
      <trkpt lat="44.39783" lon="4.40057">
        <ele>91.6</ele>
        <time>2024-03-03T16:27:18Z</time>
      </trkpt>
      <trkpt lat="44.39793" lon="4.40029">
        <ele>91.5</ele>
        <time>2024-03-03T16:27:25Z</time>
      </trkpt>
      <trkpt lat="44.39803" lon="4.40005">
        <ele>91.4</ele>
        <time>2024-03-03T16:27:31Z</time>
      </trkpt>
      <trkpt lat="44.3981" lon="4.39975">
        <ele>91.3</ele>
        <time>2024-03-03T16:27:38Z</time>
      </trkpt>
      <trkpt lat="44.39815" lon="4.39951">
        <ele>91.2</ele>
        <time>2024-03-03T16:27:44Z</time>
      </trkpt>
      <trkpt lat="44.3982" lon="4.39926">
        <ele>91.2</ele>
        <time>2024-03-03T16:27:50Z</time>
      </trkpt>
      <trkpt lat="44.39825" lon="4.399">
        <ele>91.2</ele>
        <time>2024-03-03T16:27:56Z</time>
      </trkpt>
      <trkpt lat="44.39829" lon="4.39876">
        <ele>91</ele>
        <time>2024-03-03T16:28:02Z</time>
      </trkpt>
      <trkpt lat="44.39834" lon="4.3985">
        <ele>91</ele>
        <time>2024-03-03T16:28:08Z</time>
      </trkpt>
      <trkpt lat="44.39837" lon="4.39818">
        <ele>91.1</ele>
        <time>2024-03-03T16:28:15Z</time>
      </trkpt>
      <trkpt lat="44.39838" lon="4.39791">
        <ele>91</ele>
        <time>2024-03-03T16:28:21Z</time>
      </trkpt>
      <trkpt lat="44.39841" lon="4.39763">
        <ele>91</ele>
        <time>2024-03-03T16:28:28Z</time>
      </trkpt>
      <trkpt lat="44.39843" lon="4.39736">
        <ele>90.9</ele>
        <time>2024-03-03T16:28:35Z</time>
      </trkpt>
      <trkpt lat="44.39841" lon="4.39708">
        <ele>90.8</ele>
        <time>2024-03-03T16:28:41Z</time>
      </trkpt>
      <trkpt lat="44.39841" lon="4.3968">
        <ele>90.9</ele>
        <time>2024-03-03T16:28:47Z</time>
      </trkpt>
      <trkpt lat="44.39843" lon="4.39652">
        <ele>91</ele>
        <time>2024-03-03T16:28:52Z</time>
      </trkpt>
      <trkpt lat="44.39847" lon="4.39627">
        <ele>91.2</ele>
        <time>2024-03-03T16:28:57Z</time>
      </trkpt>
      <trkpt lat="44.3985" lon="4.39597">
        <ele>91</ele>
        <time>2024-03-03T16:29:03Z</time>
      </trkpt>
      <trkpt lat="44.39848" lon="4.39572">
        <ele>90.9</ele>
        <time>2024-03-03T16:29:08Z</time>
      </trkpt>
      <trkpt lat="44.39852" lon="4.39547">
        <ele>90.9</ele>
        <time>2024-03-03T16:29:13Z</time>
      </trkpt>
      <trkpt lat="44.39851" lon="4.39519">
        <ele>90.9</ele>
        <time>2024-03-03T16:29:19Z</time>
      </trkpt>
      <trkpt lat="44.39857" lon="4.39491">
        <ele>90.9</ele>
        <time>2024-03-03T16:29:25Z</time>
      </trkpt>
      <trkpt lat="44.39865" lon="4.39465">
        <ele>91.3</ele>
        <time>2024-03-03T16:29:31Z</time>
      </trkpt>
      <trkpt lat="44.39871" lon="4.39439">
        <ele>91.4</ele>
        <time>2024-03-03T16:29:37Z</time>
      </trkpt>
      <trkpt lat="44.39874" lon="4.39412">
        <ele>91.5</ele>
        <time>2024-03-03T16:29:43Z</time>
      </trkpt>
      <trkpt lat="44.39876" lon="4.39379">
        <ele>91.6</ele>
        <time>2024-03-03T16:29:50Z</time>
      </trkpt>
      <trkpt lat="44.39878" lon="4.3935">
        <ele>91.6</ele>
        <time>2024-03-03T16:29:56Z</time>
      </trkpt>
      <trkpt lat="44.39882" lon="4.39322">
        <ele>91.7</ele>
        <time>2024-03-03T16:30:02Z</time>
      </trkpt>
      <trkpt lat="44.39886" lon="4.39295">
        <ele>91.8</ele>
        <time>2024-03-03T16:30:08Z</time>
      </trkpt>
      <trkpt lat="44.39889" lon="4.39268">
        <ele>92</ele>
        <time>2024-03-03T16:30:14Z</time>
      </trkpt>
      <trkpt lat="44.39891" lon="4.3924">
        <ele>92.2</ele>
        <time>2024-03-03T16:30:20Z</time>
      </trkpt>
      <trkpt lat="44.39895" lon="4.39214">
        <ele>92.5</ele>
        <time>2024-03-03T16:30:26Z</time>
      </trkpt>
      <trkpt lat="44.39898" lon="4.39186">
        <ele>92.9</ele>
        <time>2024-03-03T16:30:32Z</time>
      </trkpt>
      <trkpt lat="44.399" lon="4.3916">
        <ele>93.1</ele>
        <time>2024-03-03T16:30:38Z</time>
      </trkpt>
      <trkpt lat="44.39904" lon="4.39134">
        <ele>93.4</ele>
        <time>2024-03-03T16:30:44Z</time>
      </trkpt>
      <trkpt lat="44.39907" lon="4.39106">
        <ele>93.7</ele>
        <time>2024-03-03T16:30:50Z</time>
      </trkpt>
      <trkpt lat="44.3991" lon="4.39078">
        <ele>94.1</ele>
        <time>2024-03-03T16:30:56Z</time>
      </trkpt>
      <trkpt lat="44.39914" lon="4.39053">
        <ele>94.4</ele>
        <time>2024-03-03T16:31:02Z</time>
      </trkpt>
      <trkpt lat="44.3992" lon="4.39027">
        <ele>94.8</ele>
        <time>2024-03-03T16:31:08Z</time>
      </trkpt>
      <trkpt lat="44.39927" lon="4.39003">
        <ele>95.3</ele>
        <time>2024-03-03T16:31:14Z</time>
      </trkpt>
      <trkpt lat="44.39935" lon="4.3898">
        <ele>96</ele>
        <time>2024-03-03T16:31:20Z</time>
      </trkpt>
      <trkpt lat="44.39945" lon="4.38957">
        <ele>96.9</ele>
        <time>2024-03-03T16:31:26Z</time>
      </trkpt>
      <trkpt lat="44.39955" lon="4.38935">
        <ele>97.8</ele>
        <time>2024-03-03T16:31:32Z</time>
      </trkpt>
      <trkpt lat="44.39965" lon="4.38913">
        <ele>98.8</ele>
        <time>2024-03-03T16:31:38Z</time>
      </trkpt>
      <trkpt lat="44.39976" lon="4.38889">
        <ele>100</ele>
        <time>2024-03-03T16:31:45Z</time>
      </trkpt>
      <trkpt lat="44.39989" lon="4.38867">
        <ele>101.5</ele>
        <time>2024-03-03T16:31:52Z</time>
      </trkpt>
      <trkpt lat="44.40002" lon="4.38847">
        <ele>103.1</ele>
        <time>2024-03-03T16:31:59Z</time>
      </trkpt>
      <trkpt lat="44.40015" lon="4.38826">
        <ele>104.7</ele>
        <time>2024-03-03T16:32:06Z</time>
      </trkpt>
      <trkpt lat="44.40025" lon="4.38805">
        <ele>106.3</ele>
        <time>2024-03-03T16:32:14Z</time>
      </trkpt>
      <trkpt lat="44.40022" lon="4.38777">
        <ele>106.5</ele>
        <time>2024-03-03T16:32:22Z</time>
      </trkpt>
      <trkpt lat="44.40009" lon="4.38758">
        <ele>106.1</ele>
        <time>2024-03-03T16:32:28Z</time>
      </trkpt>
      <trkpt lat="44.39996" lon="4.38741">
        <ele>105.5</ele>
        <time>2024-03-03T16:32:34Z</time>
      </trkpt>
      <trkpt lat="44.39982" lon="4.38718">
        <ele>104.7</ele>
        <time>2024-03-03T16:32:41Z</time>
      </trkpt>
      <trkpt lat="44.39968" lon="4.38701">
        <ele>103.9</ele>
        <time>2024-03-03T16:32:48Z</time>
      </trkpt>
      <trkpt lat="44.39951" lon="4.38689">
        <ele>103.4</ele>
        <time>2024-03-03T16:32:56Z</time>
      </trkpt>
      <trkpt lat="44.39935" lon="4.38702">
        <ele>102.9</ele>
        <time>2024-03-03T16:33:03Z</time>
      </trkpt>
      <trkpt lat="44.39919" lon="4.38717">
        <ele>102.5</ele>
        <time>2024-03-03T16:33:10Z</time>
      </trkpt>
      <trkpt lat="44.39902" lon="4.38732">
        <ele>102</ele>
        <time>2024-03-03T16:33:17Z</time>
      </trkpt>
      <trkpt lat="44.39886" lon="4.38746">
        <ele>101.6</ele>
        <time>2024-03-03T16:33:24Z</time>
      </trkpt>
      <trkpt lat="44.39874" lon="4.38741">
        <ele>101.3</ele>
        <time>2024-03-03T16:33:30Z</time>
      </trkpt>
    </trkseg>
  </trk>
</gpx>